»·PEaware :: N196EC KSBA-KBUR

N196EC :: KSBA-KBUR

FLIGHT INFORMATION

Flight Status: Arrived
Operator: Privately registered:
United States
More flights under this callsign
Pilot: Adrián R. (20842)
Aircraft: CESSNA 172 SKYHAWK
(C172)
More flights by this aircraft type
Origin: KSBA Santa Barbara Mun
United States
Destination: KBUR Bob Hope-Burbank
United States
More flights between these airports :: More routes between these airports
Route: +
File this flight plan on PilotEdge
Remarks:
Altitude:
(Current/Filed)
5,500ft
Speed:
(Current/Filed)
0kts
Departed: 13-Nov-18 08:26 AM
Arrived: 13-Nov-18 09:13 AM
Distance/Time
Traveled:
74nm/0:47
Distance/Time
To Go:
Arrived

Flight Plot

Page will automatically refresh every two minutes.


Map Options




Map Legend


Flown Route
Filed Route
Departure Airport
Arrival Airport
Navaid (VOR, NDB)
Fix

Horizontal Profiles

Position Reports

Time Latitude Longitude Heading Altitude Ground
Speed
13-Nov-18 08:21 34.432428 -119.836152 66 17ft 0kts
13-Nov-18 08:22 34.432428 -119.836152 66 17ft 0kts
13-Nov-18 08:23 34.432250 -119.835870 156 17ft 0kts
13-Nov-18 08:24 34.432250 -119.835870 156 17ft 0kts
13-Nov-18 08:25 34.431000 -119.838854 250 17ft 14kts
13-Nov-18 08:26 34.430823 -119.839809 235 17ft 0kts
13-Nov-18 08:27 34.430823 -119.839809 235 17ft 0kts
13-Nov-18 08:28 34.429534 -119.839987 165 17ft 39kts
13-Nov-18 08:29 34.409557 -119.833856 164 721ft 78kts
13-Nov-18 08:30 34.387981 -119.827310 164 1507ft 81kts
13-Nov-18 08:31 34.366203 -119.821121 164 2291ft 81kts
13-Nov-18 08:32 34.363179 -119.801262 63 2973ft 83kts
13-Nov-18 08:33 34.372128 -119.774763 68 3606ft 86kts
13-Nov-18 08:34 34.377155 -119.746029 75 4218ft 87kts
13-Nov-18 08:35 34.382726 -119.722399 65 4703ft 87kts
13-Nov-18 08:36 34.391395 -119.689485 77 5316ft 89kts
13-Nov-18 08:37 34.395529 -119.657097 79 5485ft 111kts
13-Nov-18 08:38 34.400089 -119.620289 79 5468ft 111kts
13-Nov-18 08:39 34.398096 -119.583421 98 5499ft 110kts
13-Nov-18 08:40 34.393225 -119.552862 102 5514ft 111kts
13-Nov-18 08:41 34.382991 -119.510994 103 5543ft 111kts
13-Nov-18 08:42 34.374829 -119.481301 104 5562ft 111kts
13-Nov-18 08:43 34.362627 -119.447013 111 5547ft 111kts
13-Nov-18 08:44 34.348154 -119.407997 105 5534ft 108kts
13-Nov-18 08:45 34.340095 -119.380042 92 5528ft 102kts
13-Nov-18 08:46 34.334554 -119.346545 106 5490ft 105kts
13-Nov-18 08:47 34.327218 -119.319878 93 5511ft 100kts
13-Nov-18 08:48 34.320667 -119.287526 93 5516ft 98kts
13-Nov-18 08:49 34.315994 -119.254862 92 5479ft 96kts
13-Nov-18 08:50 34.311197 -119.223095 92 5478ft 95kts
13-Nov-18 08:51 34.306432 -119.191584 92 5483ft 96kts
13-Nov-18 08:52 34.301577 -119.159914 91 5490ft 98kts
13-Nov-18 08:53 34.296607 -119.127396 91 5488ft 98kts
13-Nov-18 08:54 34.291681 -119.095196 90 5491ft 98kts
13-Nov-18 08:55 34.286625 -119.062553 92 5493ft 100kts
13-Nov-18 08:56 34.281808 -119.030288 90 5495ft 101kts
13-Nov-18 08:57 34.276813 -118.997298 92 5491ft 100kts
13-Nov-18 08:58 34.271811 -118.963718 93 5498ft 101kts
13-Nov-18 08:59 34.266976 -118.929997 88 5491ft 101kts
13-Nov-18 09:00 34.262166 -118.896505 93 5497ft 100kts
13-Nov-18 09:01 34.257326 -118.863146 92 5493ft 101kts
13-Nov-18 09:02 34.252710 -118.829850 91 5491ft 100kts
13-Nov-18 09:03 34.248096 -118.796944 92 5497ft 100kts
13-Nov-18 09:04 34.243464 -118.763494 90 5492ft 101kts
13-Nov-18 09:05 34.237741 -118.729801 93 5497ft 103kts
13-Nov-18 09:06 34.231310 -118.695909 92 5490ft 104kts
13-Nov-18 09:07 34.225327 -118.661107 91 5317ft 109kts
13-Nov-18 09:08 34.220369 -118.624990 88 4989ft 109kts
13-Nov-18 09:09 34.216661 -118.587945 95 4570ft 116kts
13-Nov-18 09:10 34.214451 -118.549599 90 4113ft 118kts
13-Nov-18 09:11 34.209432 -118.510227 92 3681ft 118kts
13-Nov-18 09:12 34.200642 -118.471381 101 3220ft 119kts
13-Nov-18 09:13 34.197914 -118.432551 87 2547ft 115kts
13-Nov-18 09:14 34.198068 -118.396925 85 1710ft 92kts
13-Nov-18 09:15 34.197924 -118.369572 87 853ft 69kts
13-Nov-18 09:16 34.198579 -118.360278 352 780ft 0kts
13-Nov-18 09:17 34.198932 -118.362687 270 780ft 15kts
13-Nov-18 09:18 34.200210 -118.364811 94 780ft 3kts
13-Nov-18 09:19 34.200208 -118.364742 87 780ft 0kts
13-Nov-18 09:20 34.200208 -118.364742 87 780ft 0kts
13-Nov-18 09:21 34.200208 -118.364742 87 780ft 0kts
13-Nov-18 09:22 34.200208 -118.364742 87 780ft 0kts

Navigation Log

Ident Type
Flight plan parsing failed, navigation log unavailable